createdAt,value
2022-10-17T00:01:11.563Z,26.42
2022-10-17T00:03:40.654Z,26.39
2022-10-17T00:06:11.394Z,26.37
2022-10-17T00:08:41.196Z,26.38
2022-10-17T00:11:14.539Z,26.38
2022-10-17T00:13:42.963Z,26.37
2022-10-17T00:16:11.243Z,26.38
2022-10-17T00:18:39.528Z,26.36
2022-10-17T00:21:15.968Z,26.34
2022-10-17T00:23:44.192Z,26.35
2022-10-17T00:26:12.386Z,26.35
2022-10-17T00:28:40.916Z,26.32
2022-10-17T00:31:09.178Z,26.33
2022-10-17T00:33:37.458Z,26.33
2022-10-17T00:36:14.958Z,26.30
2022-10-17T00:38:45.221Z,26.26
2022-10-17T00:41:17.339Z,26.26
2022-10-17T00:44:01.857Z,26.24
2022-10-17T00:46:39.783Z,26.24
2022-10-17T00:49:12.759Z,26.23
2022-10-17T00:51:47.809Z,26.22
2022-10-17T00:54:18.046Z,26.21
2022-10-17T00:56:47.522Z,26.21
2022-10-17T00:59:17.198Z,26.19
2022-10-17T01:01:52.230Z,26.19
2022-10-17T01:04:20.643Z,26.17
2022-10-17T01:06:48.813Z,26.18
2022-10-17T01:09:17.043Z,26.17
2022-10-17T01:11:56.336Z,26.19
2022-10-17T01:14:51.942Z,26.18
2022-10-17T01:17:53.511Z,26.19
2022-10-17T01:20:52.717Z,26.19
2022-10-17T01:23:26.779Z,26.18
2022-10-17T01:26:06.494Z,26.13
2022-10-17T01:28:40.657Z,26.13
2022-10-17T01:31:16.418Z,26.13
2022-10-17T01:33:44.590Z,26.14
2022-10-17T01:36:39.998Z,26.15
2022-10-17T01:39:17.835Z,26.16
2022-10-17T01:42:07.733Z,26.15
2022-10-17T01:44:56.747Z,26.16
2022-10-17T01:47:35.219Z,26.16
2022-10-17T01:50:27.524Z,26.15
2022-10-17T01:52:59.914Z,26.15
2022-10-17T01:55:34.289Z,26.13
2022-10-17T01:58:30.283Z,26.11
2022-10-17T02:01:02.110Z,26.13
2022-10-17T02:03:32.562Z,26.12
2022-10-17T02:06:01.088Z,26.11
2022-10-17T02:08:41.001Z,26.10
2022-10-17T02:11:16.439Z,26.10
2022-10-17T02:14:06.208Z,26.09
2022-10-17T02:16:47.592Z,26.10
2022-10-17T02:19:25.205Z,26.09
2022-10-17T02:22:11.480Z,26.08
2022-10-17T02:24:47.794Z,26.09
2022-10-17T02:27:24.547Z,26.07
2022-10-17T02:30:11.338Z,26.07
2022-10-17T02:32:46.608Z,26.08
2022-10-17T02:35:18.475Z,26.08
2022-10-17T02:37:48.434Z,26.08
2022-10-17T02:40:18.806Z,26.08
2022-10-17T02:42:47.163Z,26.06
2022-10-17T02:45:16.272Z,26.07
2022-10-17T02:47:51.447Z,26.05
2022-10-17T02:50:23.451Z,26.06
2022-10-17T02:52:57.172Z,26.06
2022-10-17T02:55:31.984Z,26.05
2022-10-17T02:58:04.569Z,26.06
2022-10-17T03:00:33.386Z,26.05
2022-10-17T03:03:01.672Z,26.05
2022-10-17T03:05:30.175Z,26.05
2022-10-17T03:07:58.426Z,26.03
2022-10-17T03:10:26.627Z,26.04
2022-10-17T03:12:54.812Z,26.02
2022-10-17T03:15:22.899Z,26.02
2022-10-17T03:17:51.198Z,26.03
2022-10-17T03:20:19.396Z,26.01
2022-10-17T03:22:47.563Z,26.01
2022-10-17T03:25:15.790Z,26.01
2022-10-17T03:27:43.932Z,26.01
2022-10-17T03:30:12.253Z,25.99
2022-10-17T03:32:40.389Z,26.00
2022-10-17T03:35:14.002Z,26.00
2022-10-17T03:37:43.305Z,26.00
2022-10-17T03:40:11.800Z,26.01
2022-10-17T03:42:40.677Z,26.01
2022-10-17T03:45:09.405Z,26.01
2022-10-17T03:47:37.829Z,26.00
2022-10-17T03:50:06.576Z,26.01
2022-10-17T03:52:34.778Z,26.01
2022-10-17T03:55:03.062Z,26.00
2022-10-17T03:57:31.407Z,26.00
2022-10-17T03:59:59.974Z,26.01
2022-10-17T04:02:28.096Z,25.99
2022-10-17T04:04:56.388Z,25.99
2022-10-17T04:09:52.886Z,25.99
2022-10-17T04:12:21.067Z,25.99
2022-10-17T04:14:49.357Z,25.98
2022-10-17T04:17:17.583Z,25.97
2022-10-17T04:19:45.880Z,25.97
2022-10-17T04:22:14.151Z,25.97
2022-10-17T04:24:42.329Z,25.96
2022-10-17T04:27:10.732Z,25.95
2022-10-17T04:29:39.015Z,25.95
2022-10-17T04:32:08.003Z,25.94
2022-10-17T04:34:36.221Z,25.93
2022-10-17T04:37:04.365Z,25.94
2022-10-17T04:39:32.681Z,25.94
2022-10-17T04:42:00.901Z,25.93
2022-10-17T04:44:31.147Z,25.92
2022-10-17T04:46:59.426Z,25.92
2022-10-17T04:49:27.823Z,25.94
2022-10-17T04:51:55.921Z,25.93
2022-10-17T04:54:24.159Z,25.93
2022-10-17T04:56:52.224Z,25.92
2022-10-17T04:59:20.357Z,25.92
2022-10-17T05:01:49.890Z,25.93
2022-10-17T05:04:21.106Z,25.95
2022-10-17T05:06:52.239Z,25.96
2022-10-17T05:09:20.385Z,25.96
2022-10-17T05:11:48.532Z,25.96
2022-10-17T05:14:16.801Z,25.97
2022-10-17T05:16:45.220Z,25.98
2022-10-17T05:19:13.606Z,26.00
2022-10-17T05:21:41.792Z,26.01
2022-10-17T05:24:12.209Z,26.06
2022-10-17T05:26:40.495Z,26.07
2022-10-17T05:29:08.839Z,26.09
2022-10-17T05:31:38.069Z,26.11
2022-10-17T05:34:09.014Z,26.11
2022-10-17T05:36:39.780Z,26.10
2022-10-17T05:39:09.026Z,26.11
2022-10-17T05:41:37.217Z,26.13
2022-10-17T05:44:05.851Z,26.14
2022-10-17T05:46:34.198Z,26.11
2022-10-17T05:49:10.606Z,26.12
2022-10-17T05:51:48.261Z,26.10
2022-10-17T05:54:16.591Z,26.08
2022-10-17T05:56:44.757Z,26.09
2022-10-17T05:59:12.967Z,26.09
2022-10-17T06:01:41.150Z,26.07
2022-10-17T06:04:09.329Z,26.14
2022-10-17T06:06:38.485Z,26.11
2022-10-17T06:09:08.102Z,26.17
2022-10-17T06:11:36.498Z,26.15
2022-10-17T06:14:05.409Z,26.16
2022-10-17T06:16:33.774Z,26.18
2022-10-17T06:19:01.992Z,26.19
2022-10-17T06:21:30.429Z,26.21
2022-10-17T06:23:58.686Z,26.23
2022-10-17T06:26:26.902Z,26.27
2022-10-17T06:28:55.726Z,26.25
2022-10-17T06:31:24.023Z,26.25
2022-10-17T06:33:52.257Z,26.26
2022-10-17T06:36:20.499Z,26.27
2022-10-17T06:38:48.693Z,26.28
2022-10-17T06:41:19.507Z,26.31
2022-10-17T06:43:48.263Z,26.30
2022-10-17T06:46:17.939Z,26.31
2022-10-17T06:48:46.544Z,26.35
2022-10-17T06:51:14.794Z,26.36
2022-10-17T06:53:43.080Z,26.39
2022-10-17T06:56:11.250Z,26.39
2022-10-17T06:58:41.481Z,26.36
2022-10-17T07:01:11.978Z,26.41
2022-10-17T07:03:41.213Z,26.46
2022-10-17T07:06:13.314Z,26.47
2022-10-17T07:08:45.464Z,26.44
2022-10-17T07:11:16.164Z,25.90
2022-10-17T07:13:44.699Z,25.84
2022-10-17T07:16:14.240Z,25.83
2022-10-17T07:18:42.786Z,25.98
2022-10-17T07:21:11.091Z,26.01
2022-10-17T07:23:40.087Z,26.03
2022-10-17T07:26:11.025Z,26.06
2022-10-17T07:28:41.278Z,26.06
2022-10-17T07:31:12.992Z,25.93
2022-10-17T07:33:41.983Z,25.86
2022-10-17T07:36:10.433Z,25.95
2022-10-17T07:38:39.449Z,25.81
2022-10-17T07:41:09.902Z,25.89
2022-10-17T07:43:39.041Z,25.87
2022-10-17T07:46:08.550Z,25.83
2022-10-17T07:48:36.858Z,25.83
2022-10-17T07:51:07.153Z,25.82
2022-10-17T07:53:39.176Z,25.88
2022-10-17T07:56:08.624Z,26.02
2022-10-17T07:58:37.856Z,26.32
2022-10-17T08:01:15.745Z,26.38
2022-10-17T08:03:45.583Z,26.15
2022-10-17T08:06:14.329Z,26.15
2022-10-17T08:08:42.679Z,26.31
2022-10-17T08:11:13.312Z,26.59
2022-10-17T08:13:42.359Z,26.75
2022-10-17T08:16:12.436Z,26.83
2022-10-17T08:18:42.099Z,26.94
2022-10-17T08:21:11.458Z,27.04
2022-10-17T08:23:39.750Z,26.74
2022-10-17T08:26:10.963Z,26.65
2022-10-17T08:28:40.710Z,26.61
2022-10-17T08:31:20.228Z,26.61
2022-10-17T08:33:49.797Z,26.75
2022-10-17T08:36:19.664Z,27.00
2022-10-17T08:38:52.566Z,27.08
2022-10-17T08:41:42.689Z,27.38
2022-10-17T08:44:34.013Z,27.53
2022-10-17T08:47:05.255Z,27.57
2022-10-17T08:49:51.724Z,27.55
2022-10-17T08:52:48.151Z,27.60
2022-10-17T08:55:41.356Z,27.65
2022-10-17T08:58:15.132Z,27.66
2022-10-17T09:00:57.470Z,27.68
2022-10-17T09:04:13.053Z,27.93
2022-10-17T09:07:10.063Z,27.83
2022-10-17T09:09:56.381Z,27.80
2022-10-17T09:12:59.574Z,27.82
2022-10-17T09:15:44.945Z,27.83
2022-10-17T09:18:21.123Z,27.83
2022-10-17T09:20:53.941Z,27.85
2022-10-17T09:23:25.596Z,27.85
2022-10-17T09:25:56.584Z,27.85
2022-10-17T09:28:42.658Z,27.86
2022-10-17T09:31:37.010Z,27.87
2022-10-17T09:34:05.255Z,27.89
2022-10-17T09:36:38.530Z,27.87
2022-10-17T09:39:12.902Z,27.84
2022-10-17T09:41:46.892Z,27.85
2022-10-17T09:44:22.614Z,27.86
2022-10-17T09:47:02.914Z,27.80
2022-10-17T09:49:37.045Z,27.81
2022-10-17T09:52:09.901Z,27.77
2022-10-17T09:55:15.712Z,27.76
2022-10-17T09:58:02.134Z,27.72
2022-10-17T10:00:36.872Z,27.73
2022-10-17T10:03:17.545Z,27.72
2022-10-17T10:06:04.225Z,27.70
2022-10-17T10:08:37.997Z,27.69
2022-10-17T10:11:13.455Z,27.67
2022-10-17T10:13:43.092Z,27.67
2022-10-17T10:16:24.606Z,27.67
2022-10-17T10:18:53.089Z,27.64
2022-10-17T10:21:27.081Z,27.65
2022-10-17T10:24:30.884Z,27.61
2022-10-17T10:27:02.685Z,27.63
2022-10-17T10:29:34.391Z,27.60
2022-10-17T10:32:27.016Z,27.59
2022-10-17T10:35:06.522Z,27.59
2022-10-17T10:37:43.736Z,27.54
2022-10-17T10:40:38.143Z,27.52
2022-10-17T10:43:06.811Z,27.52
2022-10-17T10:45:53.375Z,27.49
2022-10-17T10:48:24.500Z,27.46
2022-10-17T10:51:13.267Z,27.47
2022-10-17T10:53:53.609Z,27.45
2022-10-17T10:56:27.375Z,27.46
2022-10-17T10:58:57.383Z,27.44
2022-10-17T11:01:31.910Z,27.44
2022-10-17T11:04:35.616Z,27.41
2022-10-17T11:07:10.563Z,27.43
2022-10-17T11:09:50.888Z,27.41
2022-10-17T11:12:24.699Z,27.40
2022-10-17T11:15:07.717Z,27.39
2022-10-17T11:17:57.219Z,27.39
2022-10-17T11:20:51.905Z,27.36
2022-10-17T11:23:25.180Z,27.33
2022-10-17T11:25:54.370Z,27.33
2022-10-17T11:28:24.168Z,27.33
2022-10-17T11:30:55.620Z,27.30
2022-10-17T11:33:42.329Z,27.16
2022-10-17T11:36:11.257Z,27.15
2022-10-17T11:38:57.343Z,27.24
2022-10-17T11:41:40.111Z,27.02
2022-10-17T11:44:41.101Z,27.11
2022-10-17T11:47:21.359Z,27.13
2022-10-17T11:51:59.919Z,27.12
2022-10-17T11:52:56.797Z,27.13
2022-10-17T11:55:28.030Z,27.13
2022-10-17T11:58:25.077Z,27.13
2022-10-17T12:01:15.482Z,27.14
2022-10-17T12:04:26.716Z,27.15
2022-10-17T12:07:28.772Z,27.15
2022-10-17T12:10:16.438Z,27.12
2022-10-17T12:12:44.601Z,27.10
2022-10-17T12:15:24.785Z,27.05
2022-10-17T12:17:55.943Z,26.84
2022-10-17T12:20:26.163Z,26.26
2022-10-17T12:22:58.885Z,26.74
2022-10-17T12:25:33.906Z,26.94
2022-10-17T12:28:19.122Z,27.04
2022-10-17T12:30:52.089Z,27.09
2022-10-17T12:33:30.658Z,27.13
2022-10-17T12:36:17.449Z,27.07
2022-10-17T12:38:50.496Z,27.10
2022-10-17T12:41:40.534Z,27.13
2022-10-17T12:44:15.139Z,27.18
2022-10-17T12:46:51.435Z,26.96
2022-10-17T12:49:49.162Z,27.04
2022-10-17T12:52:35.231Z,27.14
2022-10-17T12:55:12.698Z,27.15
2022-10-17T12:58:03.060Z,27.06
2022-10-17T13:00:49.804Z,27.12
2022-10-17T13:03:44.143Z,27.10
2022-10-17T13:06:21.170Z,27.10
2022-10-17T13:08:57.732Z,27.08
2022-10-17T13:11:30.510Z,27.08
2022-10-17T13:14:00.779Z,27.08
2022-10-17T13:16:35.172Z,27.06
2022-10-17T13:19:16.537Z,27.04
2022-10-17T13:22:02.272Z,27.03
2022-10-17T13:24:40.504Z,27.01
2022-10-17T13:27:23.174Z,27.00
2022-10-17T13:29:51.766Z,26.99
2022-10-17T13:32:20.112Z,26.98
2022-10-17T13:35:08.813Z,26.97
2022-10-17T13:37:37.711Z,26.95
2022-10-17T13:40:24.796Z,26.95
2022-10-17T13:42:56.853Z,26.93
2022-10-17T13:45:32.836Z,26.92
2022-10-17T13:48:04.629Z,26.89
2022-10-17T13:50:44.549Z,26.86
2022-10-17T13:53:13.366Z,26.83
2022-10-17T13:56:26.403Z,26.84
2022-10-17T13:59:01.841Z,26.80
2022-10-17T14:01:30.813Z,26.78
2022-10-17T14:04:20.130Z,26.81
2022-10-17T14:06:51.195Z,26.84
2022-10-17T14:09:27.496Z,26.83
2022-10-17T14:12:12.825Z,26.81
2022-10-17T14:15:08.860Z,26.79
2022-10-17T14:17:31.097Z,26.78
2022-10-17T14:23:21.018Z,26.79
2022-10-17T14:25:41.659Z,26.79
2022-10-17T14:28:14.212Z,26.79
2022-10-17T14:30:56.254Z,26.76
2022-10-17T14:33:30.617Z,26.77
2022-10-17T14:36:00.764Z,26.77
2022-10-17T14:38:29.361Z,26.75
2022-10-17T14:41:41.471Z,26.75
2022-10-17T14:44:19.608Z,26.77
2022-10-17T14:46:53.165Z,26.73
2022-10-17T14:49:41.221Z,26.73
2022-10-17T14:52:24.989Z,26.73
2022-10-17T14:54:53.482Z,26.70
2022-10-17T14:57:27.066Z,26.70
2022-10-17T14:59:56.545Z,26.68
2022-10-17T15:02:26.643Z,26.68
2022-10-17T15:04:55.328Z,26.68
2022-10-17T15:07:24.202Z,26.66
2022-10-17T15:09:54.276Z,26.66
2022-10-17T15:12:25.231Z,26.64
2022-10-17T15:14:54.275Z,26.64
2022-10-17T15:17:27.852Z,26.66
2022-10-17T15:19:56.886Z,26.64
2022-10-17T15:22:25.653Z,26.70
2022-10-17T15:24:53.884Z,26.70
2022-10-17T15:27:25.055Z,26.68
2022-10-17T15:29:53.379Z,26.73
2022-10-17T15:32:21.584Z,26.74
2022-10-17T15:34:49.740Z,26.74
2022-10-17T15:37:23.678Z,26.74
2022-10-17T15:39:54.626Z,26.65
2022-10-17T15:42:27.671Z,26.71
2022-10-17T15:44:56.786Z,26.71
2022-10-17T15:47:35.275Z,26.73
2022-10-17T15:50:04.301Z,26.71
2022-10-17T15:52:32.528Z,26.75
2022-10-17T15:55:04.231Z,26.74
2022-10-17T15:57:36.830Z,26.71
2022-10-17T16:00:07.621Z,26.71
2022-10-17T16:02:35.872Z,26.70
2022-10-17T16:05:13.593Z,26.70
2022-10-17T16:07:43.078Z,26.75
2022-10-17T16:10:11.245Z,26.72
2022-10-17T16:12:41.439Z,26.73
2022-10-17T16:15:24.002Z,26.71
2022-10-17T16:17:53.630Z,26.71
2022-10-17T16:20:22.173Z,26.65
2022-10-17T16:22:50.739Z,26.71
2022-10-17T16:25:24.981Z,26.70
2022-10-17T16:27:55.394Z,26.67
2022-10-17T16:30:25.298Z,26.69
2022-10-17T16:32:54.955Z,26.67
2022-10-17T16:35:33.073Z,26.55
2022-10-17T16:38:06.669Z,26.39
2022-10-17T16:40:35.279Z,26.37
2022-10-17T16:43:03.506Z,26.50
2022-10-17T16:45:31.727Z,26.50
2022-10-17T16:48:00.431Z,26.45
2022-10-17T16:50:31.412Z,26.28
2022-10-17T16:53:00.737Z,26.49
2022-10-17T16:55:29.814Z,26.36
2022-10-17T16:58:00.125Z,26.40
2022-10-17T17:00:28.559Z,26.34
2022-10-17T17:02:56.809Z,26.36
2022-10-17T17:05:25.123Z,26.46
2022-10-17T17:07:53.448Z,26.52
2022-10-17T17:10:21.566Z,26.43
2022-10-17T17:12:49.898Z,26.40
2022-10-17T17:15:18.322Z,26.46
2022-10-17T17:17:53.315Z,26.42
2022-10-17T17:20:23.614Z,26.40
2022-10-17T17:22:52.563Z,26.41
2022-10-17T17:25:22.234Z,26.45
2022-10-17T17:27:50.832Z,26.44
2022-10-17T17:30:18.995Z,26.64
2022-10-17T17:32:47.311Z,26.51
2022-10-17T17:35:15.486Z,26.51
2022-10-17T17:37:43.634Z,26.46
2022-10-17T17:40:12.179Z,26.45
2022-10-17T17:42:40.501Z,26.44
2022-10-17T17:45:09.536Z,26.46
2022-10-17T17:47:37.797Z,26.48
2022-10-17T17:50:06.435Z,26.67
2022-10-17T17:52:34.769Z,26.55
2022-10-17T17:55:03.062Z,26.55
2022-10-17T17:57:31.289Z,26.53
2022-10-17T17:59:59.596Z,26.52
2022-10-17T18:02:27.963Z,26.51
2022-10-17T18:04:56.303Z,26.49
2022-10-17T18:07:25.214Z,26.60
2022-10-17T18:09:53.874Z,26.53
2022-10-17T18:12:22.194Z,26.55
2022-10-17T18:14:50.427Z,26.55
2022-10-17T18:17:18.625Z,26.51
2022-10-17T18:19:46.918Z,26.58
2022-10-17T18:22:15.253Z,26.62
2022-10-17T18:24:43.453Z,26.59
2022-10-17T18:27:16.108Z,26.58
2022-10-17T18:29:47.587Z,26.54
2022-10-17T18:32:16.241Z,26.57
2022-10-17T18:34:44.454Z,26.58
2022-10-17T18:37:12.604Z,26.59
2022-10-17T18:39:40.900Z,26.56
2022-10-17T18:42:09.195Z,26.57
2022-10-17T18:44:37.363Z,26.54
2022-10-17T18:47:05.762Z,26.53
2022-10-17T18:49:34.470Z,26.52
2022-10-17T18:52:02.713Z,26.52
2022-10-17T18:54:33.528Z,26.53
2022-10-17T18:57:01.848Z,26.54
2022-10-17T18:59:30.074Z,26.53
2022-10-17T19:01:58.394Z,26.55
2022-10-17T19:04:26.756Z,26.55
2022-10-17T19:06:54.856Z,26.55
2022-10-17T19:09:23.180Z,26.52
2022-10-17T19:11:51.451Z,26.55
2022-10-17T19:14:19.706Z,26.56
2022-10-17T19:16:49.703Z,26.53
2022-10-17T19:19:24.436Z,26.55
2022-10-17T19:21:53.136Z,26.53
2022-10-17T19:24:27.088Z,26.56
2022-10-17T19:26:57.491Z,26.50
2022-10-17T19:29:28.032Z,26.59
2022-10-17T19:34:29.508Z,26.63
2022-10-17T19:36:57.721Z,26.63
2022-10-17T19:39:26.725Z,26.61
2022-10-17T19:41:54.971Z,26.60
2022-10-17T19:44:23.292Z,26.60
2022-10-17T19:46:51.538Z,26.60
2022-10-17T19:49:19.834Z,26.59
2022-10-17T19:51:48.357Z,26.58
2022-10-17T19:54:18.898Z,26.57
2022-10-17T19:56:47.481Z,26.54
2022-10-17T19:59:16.970Z,26.58
2022-10-17T20:01:45.778Z,26.56
2022-10-17T20:04:14.254Z,26.57
2022-10-17T20:06:42.601Z,26.56
2022-10-17T20:09:15.684Z,26.55
2022-10-17T20:11:45.867Z,26.53
2022-10-17T20:14:14.141Z,26.55
2022-10-17T20:16:44.962Z,26.54
2022-10-17T20:19:13.848Z,26.54
2022-10-17T20:21:42.673Z,26.57
2022-10-17T20:24:14.481Z,26.57
2022-10-17T20:26:43.482Z,26.54
2022-10-17T20:29:18.029Z,26.52
2022-10-17T20:31:47.242Z,26.51
2022-10-17T20:34:17.180Z,26.53
2022-10-17T20:36:45.986Z,26.51
2022-10-17T20:39:14.644Z,26.50
2022-10-17T20:41:43.722Z,26.49
2022-10-17T20:44:12.799Z,26.47
2022-10-17T20:46:48.747Z,26.48
2022-10-17T20:49:25.959Z,26.47
2022-10-17T20:51:54.172Z,26.49
2022-10-17T20:54:22.589Z,26.47
2022-10-17T20:56:50.917Z,26.46
2022-10-17T20:59:19.512Z,26.45
2022-10-17T21:01:48.040Z,26.43
2022-10-17T21:04:40.346Z,26.43
2022-10-17T21:07:04.500Z,26.41
2022-10-17T21:09:33.463Z,26.41
2022-10-17T21:12:02.676Z,26.41
2022-10-17T21:14:30.911Z,26.41
2022-10-17T21:17:03.859Z,26.43
2022-10-17T21:19:32.894Z,26.39
2022-10-17T21:22:01.241Z,26.42
2022-10-17T21:24:29.637Z,26.40
2022-10-17T21:26:58.056Z,26.41
2022-10-17T21:29:26.282Z,26.41
2022-10-17T21:31:54.421Z,26.40
2022-10-17T21:34:26.430Z,26.41
2022-10-17T21:36:54.793Z,26.38
2022-10-17T21:39:25.019Z,26.40
2022-10-17T21:41:53.965Z,26.38
2022-10-17T21:44:25.190Z,26.39
2022-10-17T21:46:54.702Z,26.38
2022-10-17T21:49:24.499Z,26.38
2022-10-17T21:51:53.432Z,26.40
2022-10-17T21:54:23.199Z,26.37
2022-10-17T21:56:52.321Z,26.37
2022-10-17T21:59:20.529Z,26.35
2022-10-17T22:01:48.793Z,26.34
2022-10-17T22:04:18.899Z,26.33
2022-10-17T22:06:48.624Z,26.33
2022-10-17T22:09:23.536Z,26.33
2022-10-17T22:11:54.088Z,26.30
2022-10-17T22:14:24.278Z,26.30
2022-10-17T22:16:52.884Z,26.30
2022-10-17T22:19:25.856Z,26.30
2022-10-17T22:21:54.598Z,26.28
2022-10-17T22:24:23.495Z,26.29
2022-10-17T22:26:52.078Z,26.29
2022-10-17T22:29:20.746Z,26.28
2022-10-17T22:31:49.158Z,26.28
2022-10-17T22:34:18.610Z,26.27
2022-10-17T22:36:48.042Z,26.27
2022-10-17T22:39:16.329Z,26.26
2022-10-17T22:41:44.533Z,26.27
2022-10-17T22:44:12.832Z,26.26
2022-10-17T22:46:41.108Z,26.26
2022-10-17T22:49:09.369Z,26.25
2022-10-17T22:51:37.481Z,26.23
2022-10-17T22:54:05.606Z,26.26
2022-10-17T22:56:33.822Z,26.24
2022-10-17T22:59:02.000Z,26.24
2022-10-17T23:01:30.235Z,26.24
2022-10-17T23:03:58.687Z,26.22
2022-10-17T23:06:26.939Z,26.21
2022-10-17T23:08:55.610Z,26.20
2022-10-17T23:11:23.830Z,26.20
2022-10-17T23:13:51.959Z,26.20
2022-10-17T23:16:20.164Z,26.18
2022-10-17T23:18:48.615Z,26.19
2022-10-17T23:21:16.771Z,26.16
2022-10-17T23:23:45.003Z,26.17
2022-10-17T23:26:14.164Z,26.16
2022-10-17T23:28:43.082Z,26.15
2022-10-17T23:31:19.209Z,26.14
2022-10-17T23:33:48.665Z,26.12
2022-10-17T23:36:18.713Z,26.12
2022-10-17T23:38:47.733Z,26.12
2022-10-17T23:41:16.589Z,26.14
2022-10-17T23:43:45.212Z,26.14
2022-10-17T23:46:13.526Z,26.13
2022-10-17T23:48:42.014Z,26.12
2022-10-17T23:51:10.959Z,26.12
2022-10-17T23:53:40.171Z,26.12
2022-10-17T23:56:09.042Z,26.13
2022-10-17T23:58:37.597Z,26.13
